sensor_id;sensor_type;location;lat;lon;timestamp;P1;durP1;ratioP1;P2;durP2;ratioP2
72493;SDS011;60520;49.182;-0.348;2023-03-01T00:01:00;2.35;;;1.60;;
72493;SDS011;60520;49.182;-0.348;2023-03-01T00:03:27;3.13;;;1.90;;
72493;SDS011;60520;49.182;-0.348;2023-03-01T00:05:54;2.50;;;1.63;;
72493;SDS011;60520;49.182;-0.348;2023-03-01T00:08:23;2.33;;;1.52;;
72493;SDS011;60520;49.182;-0.348;2023-03-01T00:10:59;2.80;;;1.73;;
72493;SDS011;60520;49.182;-0.348;2023-03-01T00:13:26;2.47;;;1.55;;
72493;SDS011;60520;49.182;-0.348;2023-03-01T00:15:53;2.88;;;1.50;;
72493;SDS011;60520;49.182;-0.348;2023-03-01T00:18:20;2.30;;;1.67;;
72493;SDS011;60520;49.182;-0.348;2023-03-01T00:20:49;2.95;;;1.60;;
72493;SDS011;60520;49.182;-0.348;2023-03-01T00:23:16;2.38;;;1.70;;
72493;SDS011;60520;49.182;-0.348;2023-03-01T00:25:44;2.30;;;1.50;;
72493;SDS011;60520;49.182;-0.348;2023-03-01T00:28:12;3.17;;;1.70;;
72493;SDS011;60520;49.182;-0.348;2023-03-01T00:30:39;2.42;;;1.50;;
72493;SDS011;60520;49.182;-0.348;2023-03-01T00:33:06;2.10;;;1.40;;
72493;SDS011;60520;49.182;-0.348;2023-03-01T00:35:34;2.15;;;1.58;;
72493;SDS011;60520;49.182;-0.348;2023-03-01T00:38:01;3.03;;;1.50;;
72493;SDS011;60520;49.182;-0.348;2023-03-01T00:40:29;2.58;;;1.70;;
72493;SDS011;60520;49.182;-0.348;2023-03-01T00:42:57;2.13;;;1.30;;
72493;SDS011;60520;49.182;-0.348;2023-03-01T00:45:25;1.80;;;1.48;;
72493;SDS011;60520;49.182;-0.348;2023-03-01T00:47:52;2.33;;;1.55;;
72493;SDS011;60520;49.182;-0.348;2023-03-01T00:50:19;3.38;;;1.80;;
72493;SDS011;60520;49.182;-0.348;2023-03-01T00:52:47;3.20;;;1.80;;
72493;SDS011;60520;49.182;-0.348;2023-03-01T00:55:14;2.45;;;1.67;;
72493;SDS011;60520;49.182;-0.348;2023-03-01T00:57:41;2.42;;;1.60;;
72493;SDS011;60520;49.182;-0.348;2023-03-01T01:00:10;3.10;;;1.40;;
72493;SDS011;60520;49.182;-0.348;2023-03-01T01:02:37;3.00;;;1.67;;
72493;SDS011;60520;49.182;-0.348;2023-03-01T01:05:05;2.13;;;1.35;;
72493;SDS011;60520;49.182;-0.348;2023-03-01T01:07:32;3.08;;;1.70;;
72493;SDS011;60520;49.182;-0.348;2023-03-01T01:09:59;2.95;;;1.50;;
72493;SDS011;60520;49.182;-0.348;2023-03-01T01:12:26;2.63;;;1.70;;
72493;SDS011;60520;49.182;-0.348;2023-03-01T01:14:53;1.90;;;1.50;;
72493;SDS011;60520;49.182;-0.348;2023-03-01T01:17:22;2.00;;;1.40;;
72493;SDS011;60520;49.182;-0.348;2023-03-01T01:19:49;2.30;;;1.40;;
72493;SDS011;60520;49.182;-0.348;2023-03-01T01:22:16;2.58;;;1.48;;
72493;SDS011;60520;49.182;-0.348;2023-03-01T01:24:43;2.17;;;1.60;;
72493;SDS011;60520;49.182;-0.348;2023-03-01T01:27:10;2.28;;;1.70;;
72493;SDS011;60520;49.182;-0.348;2023-03-01T01:29:37;3.38;;;1.67;;
72493;SDS011;60520;49.182;-0.348;2023-03-01T01:32:04;1.80;;;1.45;;
72493;SDS011;60520;49.182;-0.348;2023-03-01T01:34:33;2.13;;;1.67;;
72493;SDS011;60520;49.182;-0.348;2023-03-01T01:37:00;1.70;;;1.52;;
72493;SDS011;60520;49.182;-0.348;2023-03-01T01:39:27;2.63;;;1.58;;
72493;SDS011;60520;49.182;-0.348;2023-03-01T01:41:55;3.40;;;1.35;;
72493;SDS011;60520;49.182;-0.348;2023-03-01T01:44:23;2.20;;;1.63;;
72493;SDS011;60520;49.182;-0.348;2023-03-01T01:46:52;3.05;;;1.40;;
72493;SDS011;60520;49.182;-0.348;2023-03-01T01:49:25;2.63;;;1.52;;
72493;SDS011;60520;49.182;-0.348;2023-03-01T01:51:57;2.63;;;1.52;;
72493;SDS011;60520;49.182;-0.348;2023-03-01T01:54:27;3.10;;;1.45;;
72493;SDS011;60520;49.182;-0.348;2023-03-01T01:56:57;2.22;;;1.65;;
72493;SDS011;60520;49.182;-0.348;2023-03-01T01:59:26;2.22;;;1.50;;
72493;SDS011;60520;49.182;-0.348;2023-03-01T02:01:54;2.13;;;1.50;;
72493;SDS011;60520;49.182;-0.348;2023-03-01T02:04:21;1.75;;;1.30;;
72493;SDS011;60520;49.182;-0.348;2023-03-01T02:06:49;2.15;;;1.55;;
72493;SDS011;60520;49.182;-0.348;2023-03-01T02:09:20;1.90;;;1.60;;
72493;SDS011;60520;49.182;-0.348;2023-03-01T02:11:48;4.32;;;1.80;;
72493;SDS011;60520;49.182;-0.348;2023-03-01T02:14:17;2.72;;;1.40;;
72493;SDS011;60520;49.182;-0.348;2023-03-01T02:16:44;3.25;;;1.70;;
72493;SDS011;60520;49.182;-0.348;2023-03-01T02:19:13;2.15;;;1.40;;
72493;SDS011;60520;49.182;-0.348;2023-03-01T02:21:46;2.28;;;1.38;;
72493;SDS011;60520;49.182;-0.348;2023-03-01T02:24:21;2.83;;;1.55;;
72493;SDS011;60520;49.182;-0.348;2023-03-01T02:26:53;2.72;;;1.60;;
72493;SDS011;60520;49.182;-0.348;2023-03-01T02:29:23;2.55;;;1.58;;
72493;SDS011;60520;49.182;-0.348;2023-03-01T02:31:51;2.20;;;1.50;;
72493;SDS011;60520;49.182;-0.348;2023-03-01T02:34:22;4.05;;;1.70;;
72493;SDS011;60520;49.182;-0.348;2023-03-01T02:36:51;3.00;;;1.58;;
72493;SDS011;60520;49.182;-0.348;2023-03-01T02:39:21;2.20;;;1.48;;
72493;SDS011;60520;49.182;-0.348;2023-03-01T02:41:50;2.50;;;1.80;;
72493;SDS011;60520;49.182;-0.348;2023-03-01T02:44:18;1.73;;;1.42;;
72493;SDS011;60520;49.182;-0.348;2023-03-01T02:46:47;2.72;;;1.73;;
72493;SDS011;60520;49.182;-0.348;2023-03-01T02:49:18;3.20;;;1.60;;
72493;SDS011;60520;49.182;-0.348;2023-03-01T02:51:47;1.83;;;1.40;;
72493;SDS011;60520;49.182;-0.348;2023-03-01T02:54:17;2.80;;;1.70;;
72493;SDS011;60520;49.182;-0.348;2023-03-01T02:56:45;2.95;;;1.63;;
72493;SDS011;60520;49.182;-0.348;2023-03-01T02:59:13;2.13;;;1.60;;
72493;SDS011;60520;49.182;-0.348;2023-03-01T03:01:41;3.00;;;1.70;;
72493;SDS011;60520;49.182;-0.348;2023-03-01T03:04:11;2.55;;;1.60;;
72493;SDS011;60520;49.182;-0.348;2023-03-01T03:06:42;1.90;;;1.50;;
72493;SDS011;60520;49.182;-0.348;2023-03-01T03:09:09;3.03;;;1.50;;
72493;SDS011;60520;49.182;-0.348;2023-03-01T03:11:36;2.63;;;1.65;;
72493;SDS011;60520;49.182;-0.348;2023-03-01T03:14:04;3.03;;;1.52;;
72493;SDS011;60520;49.182;-0.348;2023-03-01T03:16:37;1.98;;;1.40;;
72493;SDS011;60520;49.182;-0.348;2023-03-01T03:19:04;2.67;;;1.65;;
72493;SDS011;60520;49.182;-0.348;2023-03-01T03:21:33;2.17;;;1.58;;
72493;SDS011;60520;49.182;-0.348;2023-03-01T03:24:00;3.13;;;1.52;;
72493;SDS011;60520;49.182;-0.348;2023-03-01T03:26:27;2.30;;;1.48;;
72493;SDS011;60520;49.182;-0.348;2023-03-01T03:28:54;2.33;;;1.65;;
72493;SDS011;60520;49.182;-0.348;2023-03-01T03:31:22;1.90;;;1.20;;
72493;SDS011;60520;49.182;-0.348;2023-03-01T03:33:49;2.72;;;1.65;;
72493;SDS011;60520;49.182;-0.348;2023-03-01T03:36:16;2.97;;;1.77;;
72493;SDS011;60520;49.182;-0.348;2023-03-01T03:38:45;2.70;;;1.67;;
72493;SDS011;60520;49.182;-0.348;2023-03-01T03:41:12;2.42;;;1.40;;
72493;SDS011;60520;49.182;-0.348;2023-03-01T03:43:40;2.20;;;1.73;;
72493;SDS011;60520;49.182;-0.348;2023-03-01T03:46:08;3.92;;;1.60;;
72493;SDS011;60520;49.182;-0.348;2023-03-01T03:48:36;2.35;;;1.63;;
72493;SDS011;60520;49.182;-0.348;2023-03-01T03:51:04;2.45;;;1.42;;
72493;SDS011;60520;49.182;-0.348;2023-03-01T03:53:32;2.40;;;1.58;;
72493;SDS011;60520;49.182;-0.348;2023-03-01T03:56:01;3.35;;;1.58;;
72493;SDS011;60520;49.182;-0.348;2023-03-01T03:58:28;2.45;;;1.40;;
72493;SDS011;60520;49.182;-0.348;2023-03-01T04:00:56;2.80;;;1.70;;
72493;SDS011;60520;49.182;-0.348;2023-03-01T04:03:24;2.13;;;1.40;;
72493;SDS011;60520;49.182;-0.348;2023-03-01T04:05:51;2.28;;;1.58;;
72493;SDS011;60520;49.182;-0.348;2023-03-01T04:08:19;1.98;;;1.50;;
72493;SDS011;60520;49.182;-0.348;2023-03-01T04:10:47;2.60;;;1.50;;
72493;SDS011;60520;49.182;-0.348;2023-03-01T04:13:16;2.22;;;1.50;;
72493;SDS011;60520;49.182;-0.348;2023-03-01T04:15:44;2.25;;;1.55;;
72493;SDS011;60520;49.182;-0.348;2023-03-01T04:18:12;4.13;;;1.70;;
72493;SDS011;60520;49.182;-0.348;2023-03-01T04:20:39;2.25;;;1.40;;
72493;SDS011;60520;49.182;-0.348;2023-03-01T04:23:07;2.83;;;1.48;;
72493;SDS011;60520;49.182;-0.348;2023-03-01T04:25:38;2.08;;;1.40;;
72493;SDS011;60520;49.182;-0.348;2023-03-01T04:28:06;2.80;;;1.75;;
72493;SDS011;60520;49.182;-0.348;2023-03-01T04:30:34;2.58;;;1.67;;
72493;SDS011;60520;49.182;-0.348;2023-03-01T04:33:02;4.00;;;1.75;;
72493;SDS011;60520;49.182;-0.348;2023-03-01T04:35:29;2.67;;;1.55;;
72493;SDS011;60520;49.182;-0.348;2023-03-01T04:37:57;2.80;;;1.63;;
72493;SDS011;60520;49.182;-0.348;2023-03-01T04:40:24;2.95;;;1.48;;
72493;SDS011;60520;49.182;-0.348;2023-03-01T04:42:51;2.03;;;1.40;;
72493;SDS011;60520;49.182;-0.348;2023-03-01T04:45:19;3.47;;;1.98;;
72493;SDS011;60520;49.182;-0.348;2023-03-01T04:47:47;2.60;;;1.52;;
72493;SDS011;60520;49.182;-0.348;2023-03-01T04:50:17;2.92;;;1.90;;
72493;SDS011;60520;49.182;-0.348;2023-03-01T04:52:46;1.92;;;1.52;;
72493;SDS011;60520;49.182;-0.348;2023-03-01T04:55:13;2.92;;;1.58;;
72493;SDS011;60520;49.182;-0.348;2023-03-01T04:57:40;2.75;;;1.70;;
72493;SDS011;60520;49.182;-0.348;2023-03-01T05:00:09;1.98;;;1.50;;
72493;SDS011;60520;49.182;-0.348;2023-03-01T05:02:48;1.95;;;1.58;;
72493;SDS011;60520;49.182;-0.348;2023-03-01T05:05:18;2.42;;;1.50;;
72493;SDS011;60520;49.182;-0.348;2023-03-01T05:07:45;2.58;;;1.75;;
72493;SDS011;60520;49.182;-0.348;2023-03-01T05:10:12;2.75;;;1.60;;
72493;SDS011;60520;49.182;-0.348;2023-03-01T05:12:40;2.75;;;1.80;;
72493;SDS011;60520;49.182;-0.348;2023-03-01T05:15:07;3.72;;;1.70;;
72493;SDS011;60520;49.182;-0.348;2023-03-01T05:17:35;2.17;;;1.60;;
72493;SDS011;60520;49.182;-0.348;2023-03-01T05:20:03;1.98;;;1.42;;
72493;SDS011;60520;49.182;-0.348;2023-03-01T05:22:33;2.08;;;1.60;;
72493;SDS011;60520;49.182;-0.348;2023-03-01T05:25:00;2.20;;;1.35;;
72493;SDS011;60520;49.182;-0.348;2023-03-01T05:27:27;2.55;;;1.65;;
72493;SDS011;60520;49.182;-0.348;2023-03-01T05:29:54;2.30;;;1.58;;
72493;SDS011;60520;49.182;-0.348;2023-03-01T05:32:21;3.13;;;1.50;;
72493;SDS011;60520;49.182;-0.348;2023-03-01T05:34:49;2.28;;;1.48;;
72493;SDS011;60520;49.182;-0.348;2023-03-01T05:37:18;3.65;;;1.55;;
72493;SDS011;60520;49.182;-0.348;2023-03-01T05:39:45;2.10;;;1.42;;
72493;SDS011;60520;49.182;-0.348;2023-03-01T05:42:15;2.58;;;1.33;;
72493;SDS011;60520;49.182;-0.348;2023-03-01T05:44:42;2.25;;;1.52;;
72493;SDS011;60520;49.182;-0.348;2023-03-01T05:47:10;2.45;;;1.65;;
72493;SDS011;60520;49.182;-0.348;2023-03-01T05:49:37;2.33;;;1.52;;
72493;SDS011;60520;49.182;-0.348;2023-03-01T05:52:04;1.70;;;1.40;;
72493;SDS011;60520;49.182;-0.348;2023-03-01T05:54:32;3.03;;;1.70;;
72493;SDS011;60520;49.182;-0.348;2023-03-01T05:57:00;2.03;;;1.60;;
72493;SDS011;60520;49.182;-0.348;2023-03-01T05:59:27;2.47;;;1.42;;
72493;SDS011;60520;49.182;-0.348;2023-03-01T06:01:54;1.92;;;1.55;;
72493;SDS011;60520;49.182;-0.348;2023-03-01T06:04:21;2.63;;;1.45;;
72493;SDS011;60520;49.182;-0.348;2023-03-01T06:06:48;1.60;;;1.25;;
72493;SDS011;60520;49.182;-0.348;2023-03-01T06:09:15;2.35;;;1.35;;
72493;SDS011;60520;49.182;-0.348;2023-03-01T06:11:44;2.80;;;1.63;;
72493;SDS011;60520;49.182;-0.348;2023-03-01T06:14:11;2.13;;;1.60;;
72493;SDS011;60520;49.182;-0.348;2023-03-01T06:16:39;2.20;;;1.38;;
72493;SDS011;60520;49.182;-0.348;2023-03-01T06:19:06;2.58;;;1.40;;
72493;SDS011;60520;49.182;-0.348;2023-03-01T06:21:33;2.85;;;1.88;;
72493;SDS011;60520;49.182;-0.348;2023-03-01T06:24:00;3.17;;;1.90;;
72493;SDS011;60520;49.182;-0.348;2023-03-01T06:26:27;2.08;;;1.50;;
72493;SDS011;60520;49.182;-0.348;2023-03-01T06:28:56;1.95;;;1.50;;
72493;SDS011;60520;49.182;-0.348;2023-03-01T06:31:23;3.10;;;1.73;;
72493;SDS011;60520;49.182;-0.348;2023-03-01T06:33:50;2.70;;;1.65;;
72493;SDS011;60520;49.182;-0.348;2023-03-01T06:36:17;2.75;;;1.45;;
72493;SDS011;60520;49.182;-0.348;2023-03-01T06:38:46;2.50;;;1.60;;
72493;SDS011;60520;49.182;-0.348;2023-03-01T06:41:13;2.38;;;1.50;;
72493;SDS011;60520;49.182;-0.348;2023-03-01T06:43:40;3.75;;;1.75;;
72493;SDS011;60520;49.182;-0.348;2023-03-01T06:46:08;1.58;;;1.25;;
72493;SDS011;60520;49.182;-0.348;2023-03-01T06:48:35;3.45;;;1.83;;
72493;SDS011;60520;49.182;-0.348;2023-03-01T06:51:03;2.15;;;1.50;;
72493;SDS011;60520;49.182;-0.348;2023-03-01T06:53:30;1.60;;;1.35;;
72493;SDS011;60520;49.182;-0.348;2023-03-01T06:55:57;2.30;;;1.40;;
72493;SDS011;60520;49.182;-0.348;2023-03-01T06:58:25;2.83;;;1.50;;
72493;SDS011;60520;49.182;-0.348;2023-03-01T07:00:52;2.42;;;1.70;;
72493;SDS011;60520;49.182;-0.348;2023-03-01T07:03:20;2.75;;;1.60;;
72493;SDS011;60520;49.182;-0.348;2023-03-01T07:05:48;3.13;;;1.60;;
72493;SDS011;60520;49.182;-0.348;2023-03-01T07:08:16;2.33;;;1.60;;
72493;SDS011;60520;49.182;-0.348;2023-03-01T07:10:43;2.55;;;1.50;;
72493;SDS011;60520;49.182;-0.348;2023-03-01T07:13:10;2.55;;;1.70;;
72493;SDS011;60520;49.182;-0.348;2023-03-01T07:15:39;2.22;;;1.52;;
72493;SDS011;60520;49.182;-0.348;2023-03-01T07:18:07;2.25;;;1.48;;
72493;SDS011;60520;49.182;-0.348;2023-03-01T07:20:35;3.10;;;1.65;;
72493;SDS011;60520;49.182;-0.348;2023-03-01T07:23:03;2.88;;;1.70;;
72493;SDS011;60520;49.182;-0.348;2023-03-01T07:25:32;1.88;;;1.45;;
72493;SDS011;60520;49.182;-0.348;2023-03-01T07:27:59;2.35;;;1.50;;
72493;SDS011;60520;49.182;-0.348;2023-03-01T07:30:26;3.95;;;1.60;;
72493;SDS011;60520;49.182;-0.348;2023-03-01T07:32:53;3.08;;;1.58;;
72493;SDS011;60520;49.182;-0.348;2023-03-01T07:35:20;2.05;;;1.50;;
72493;SDS011;60520;49.182;-0.348;2023-03-01T07:37:49;3.72;;;1.60;;
72493;SDS011;60520;49.182;-0.348;2023-03-01T07:40:16;2.80;;;1.60;;
72493;SDS011;60520;49.182;-0.348;2023-03-01T07:42:43;3.47;;;1.85;;
72493;SDS011;60520;49.182;-0.348;2023-03-01T07:45:10;3.28;;;2.00;;
72493;SDS011;60520;49.182;-0.348;2023-03-01T07:47:38;3.30;;;1.80;;
72493;SDS011;60520;49.182;-0.348;2023-03-01T07:50:05;2.45;;;1.70;;
72493;SDS011;60520;49.182;-0.348;2023-03-01T07:52:33;2.28;;;1.40;;
72493;SDS011;60520;49.182;-0.348;2023-03-01T07:55:01;2.83;;;1.52;;
72493;SDS011;60520;49.182;-0.348;2023-03-01T07:57:28;2.75;;;1.75;;
72493;SDS011;60520;49.182;-0.348;2023-03-01T07:59:56;3.38;;;1.73;;
72493;SDS011;60520;49.182;-0.348;2023-03-01T08:02:23;2.83;;;1.80;;
72493;SDS011;60520;49.182;-0.348;2023-03-01T08:04:50;2.20;;;1.50;;
72493;SDS011;60520;49.182;-0.348;2023-03-01T08:07:17;3.42;;;1.88;;
72493;SDS011;60520;49.182;-0.348;2023-03-01T08:09:44;2.75;;;1.80;;
72493;SDS011;60520;49.182;-0.348;2023-03-01T08:12:13;3.15;;;1.58;;
72493;SDS011;60520;49.182;-0.348;2023-03-01T08:14:41;4.15;;;1.90;;
72493;SDS011;60520;49.182;-0.348;2023-03-01T08:17:08;2.88;;;1.70;;
72493;SDS011;60520;49.182;-0.348;2023-03-01T08:19:35;2.67;;;1.70;;
72493;SDS011;60520;49.182;-0.348;2023-03-01T08:22:03;2.05;;;1.58;;
72493;SDS011;60520;49.182;-0.348;2023-03-01T08:24:30;3.88;;;1.70;;
72493;SDS011;60520;49.182;-0.348;2023-03-01T08:26:57;3.22;;;1.67;;
72493;SDS011;60520;49.182;-0.348;2023-03-01T08:29:25;2.67;;;1.67;;
72493;SDS011;60520;49.182;-0.348;2023-03-01T08:31:53;2.38;;;1.88;;
72493;SDS011;60520;49.182;-0.348;2023-03-01T08:34:20;2.70;;;1.90;;
72493;SDS011;60520;49.182;-0.348;2023-03-01T08:36:47;3.45;;;2.13;;
72493;SDS011;60520;49.182;-0.348;2023-03-01T08:39:15;4.32;;;2.22;;
72493;SDS011;60520;49.182;-0.348;2023-03-01T08:41:43;3.53;;;2.25;;
72493;SDS011;60520;49.182;-0.348;2023-03-01T08:44:11;3.13;;;1.80;;
72493;SDS011;60520;49.182;-0.348;2023-03-01T08:46:40;4.18;;;2.00;;
72493;SDS011;60520;49.182;-0.348;2023-03-01T08:49:08;2.95;;;2.10;;
72493;SDS011;60520;49.182;-0.348;2023-03-01T08:51:35;3.58;;;2.00;;
72493;SDS011;60520;49.182;-0.348;2023-03-01T08:54:03;3.85;;;2.00;;
72493;SDS011;60520;49.182;-0.348;2023-03-01T08:56:30;4.32;;;2.28;;
72493;SDS011;60520;49.182;-0.348;2023-03-01T08:58:57;3.83;;;1.95;;
72493;SDS011;60520;49.182;-0.348;2023-03-01T09:01:24;4.03;;;2.20;;
72493;SDS011;60520;49.182;-0.348;2023-03-01T09:03:53;4.18;;;1.85;;
72493;SDS011;60520;49.182;-0.348;2023-03-01T09:06:20;3.28;;;1.95;;
72493;SDS011;60520;49.182;-0.348;2023-03-01T09:08:48;3.60;;;2.30;;
72493;SDS011;60520;49.182;-0.348;2023-03-01T09:11:16;5.05;;;2.40;;
72493;SDS011;60520;49.182;-0.348;2023-03-01T09:13:44;4.65;;;2.20;;
72493;SDS011;60520;49.182;-0.348;2023-03-01T09:16:12;3.70;;;2.08;;
72493;SDS011;60520;49.182;-0.348;2023-03-01T09:18:39;4.30;;;2.33;;
72493;SDS011;60520;49.182;-0.348;2023-03-01T09:21:08;4.53;;;2.30;;
72493;SDS011;60520;49.182;-0.348;2023-03-01T09:23:37;4.20;;;2.22;;
72493;SDS011;60520;49.182;-0.348;2023-03-01T09:26:04;5.68;;;2.17;;
72493;SDS011;60520;49.182;-0.348;2023-03-01T09:28:33;7.03;;;2.28;;
72493;SDS011;60520;49.182;-0.348;2023-03-01T09:31:00;4.65;;;2.20;;
72493;SDS011;60520;49.182;-0.348;2023-03-01T09:33:28;5.15;;;2.08;;
72493;SDS011;60520;49.182;-0.348;2023-03-01T09:35:59;4.25;;;2.33;;
72493;SDS011;60520;49.182;-0.348;2023-03-01T09:38:28;6.55;;;2.47;;
72493;SDS011;60520;49.182;-0.348;2023-03-01T09:40:55;35.92;;;3.75;;
72493;SDS011;60520;49.182;-0.348;2023-03-01T09:43:23;22.05;;;3.28;;
72493;SDS011;60520;49.182;-0.348;2023-03-01T09:45:52;7.68;;;2.40;;
72493;SDS011;60520;49.182;-0.348;2023-03-01T09:48:21;10.55;;;2.65;;
72493;SDS011;60520;49.182;-0.348;2023-03-01T09:50:50;10.02;;;2.55;;
72493;SDS011;60520;49.182;-0.348;2023-03-01T09:53:18;8.35;;;2.28;;
72493;SDS011;60520;49.182;-0.348;2023-03-01T09:55:48;7.28;;;2.80;;
72493;SDS011;60520;49.182;-0.348;2023-03-01T09:58:26;6.40;;;2.28;;
72493;SDS011;60520;49.182;-0.348;2023-03-01T10:00:56;5.93;;;2.50;;
72493;SDS011;60520;49.182;-0.348;2023-03-01T10:03:25;5.65;;;2.50;;
72493;SDS011;60520;49.182;-0.348;2023-03-01T10:05:56;3.50;;;2.20;;
72493;SDS011;60520;49.182;-0.348;2023-03-01T10:08:26;7.10;;;2.20;;
72493;SDS011;60520;49.182;-0.348;2023-03-01T10:10:57;6.55;;;2.70;;
72493;SDS011;60520;49.182;-0.348;2023-03-01T10:13:26;6.18;;;2.33;;
72493;SDS011;60520;49.182;-0.348;2023-03-01T10:15:55;6.40;;;2.40;;
72493;SDS011;60520;49.182;-0.348;2023-03-01T10:18:24;6.50;;;2.45;;
72493;SDS011;60520;49.182;-0.348;2023-03-01T10:20:53;7.35;;;2.40;;
72493;SDS011;60520;49.182;-0.348;2023-03-01T10:23:22;5.53;;;2.17;;
72493;SDS011;60520;49.182;-0.348;2023-03-01T10:26:00;6.35;;;2.20;;
72493;SDS011;60520;49.182;-0.348;2023-03-01T10:28:30;5.03;;;2.10;;
72493;SDS011;60520;49.182;-0.348;2023-03-01T10:30:58;5.97;;;2.08;;
72493;SDS011;60520;49.182;-0.348;2023-03-01T10:33:26;6.15;;;2.63;;
72493;SDS011;60520;49.182;-0.348;2023-03-01T10:35:54;4.07;;;2.10;;
72493;SDS011;60520;49.182;-0.348;2023-03-01T10:38:21;5.15;;;2.15;;
72493;SDS011;60520;49.182;-0.348;2023-03-01T10:40:52;5.18;;;2.33;;
72493;SDS011;60520;49.182;-0.348;2023-03-01T10:43:23;5.97;;;2.33;;
72493;SDS011;60520;49.182;-0.348;2023-03-01T10:45:51;5.00;;;2.30;;
72493;SDS011;60520;49.182;-0.348;2023-03-01T10:48:19;4.65;;;1.98;;
72493;SDS011;60520;49.182;-0.348;2023-03-01T10:50:48;5.97;;;2.22;;
72493;SDS011;60520;49.182;-0.348;2023-03-01T10:53:26;4.90;;;2.17;;
72493;SDS011;60520;49.182;-0.348;2023-03-01T10:55:57;3.85;;;2.05;;
72493;SDS011;60520;49.182;-0.348;2023-03-01T10:58:29;9.57;;;2.20;;
72493;SDS011;60520;49.182;-0.348;2023-03-01T11:00:57;6.18;;;2.25;;
72493;SDS011;60520;49.182;-0.348;2023-03-01T11:03:25;6.25;;;2.22;;
72493;SDS011;60520;49.182;-0.348;2023-03-01T11:05:54;13.27;;;2.60;;
72493;SDS011;60520;49.182;-0.348;2023-03-01T11:08:35;6.45;;;2.17;;
72493;SDS011;60520;49.182;-0.348;2023-03-01T11:13:50;4.80;;;2.35;;
72493;SDS011;60520;49.182;-0.348;2023-03-01T11:16:22;7.65;;;2.15;;
72493;SDS011;60520;49.182;-0.348;2023-03-01T11:18:55;9.25;;;2.30;;
72493;SDS011;60520;49.182;-0.348;2023-03-01T11:21:22;4.50;;;2.08;;
72493;SDS011;60520;49.182;-0.348;2023-03-01T11:23:50;12.93;;;2.22;;
72493;SDS011;60520;49.182;-0.348;2023-03-01T11:26:18;4.97;;;1.90;;
72493;SDS011;60520;49.182;-0.348;2023-03-01T11:28:48;5.88;;;2.10;;
72493;SDS011;60520;49.182;-0.348;2023-03-01T11:31:17;17.92;;;6.82;;
72493;SDS011;60520;49.182;-0.348;2023-03-01T11:33:47;9.25;;;3.97;;
72493;SDS011;60520;49.182;-0.348;2023-03-01T11:36:16;10.38;;;3.88;;
72493;SDS011;60520;49.182;-0.348;2023-03-01T11:38:48;7.57;;;3.58;;
72493;SDS011;60520;49.182;-0.348;2023-03-01T11:41:17;8.05;;;3.42;;
72493;SDS011;60520;49.182;-0.348;2023-03-01T11:43:47;11.65;;;3.95;;
72493;SDS011;60520;49.182;-0.348;2023-03-01T11:46:29;6.28;;;3.25;;
72493;SDS011;60520;49.182;-0.348;2023-03-01T11:49:01;7.70;;;3.00;;
72493;SDS011;60520;49.182;-0.348;2023-03-01T11:51:36;6.07;;;3.10;;
72493;SDS011;60520;49.182;-0.348;2023-03-01T11:54:06;10.55;;;3.30;;
72493;SDS011;60520;49.182;-0.348;2023-03-01T11:56:38;6.55;;;3.13;;
72493;SDS011;60520;49.182;-0.348;2023-03-01T11:59:10;6.55;;;2.80;;
72493;SDS011;60520;49.182;-0.348;2023-03-01T12:01:48;9.60;;;2.95;;
72493;SDS011;60520;49.182;-0.348;2023-03-01T12:07:12;7.28;;;2.97;;
72493;SDS011;60520;49.182;-0.348;2023-03-01T12:09:47;7.00;;;3.20;;
72493;SDS011;60520;49.182;-0.348;2023-03-01T12:12:24;5.22;;;2.95;;
72493;SDS011;60520;49.182;-0.348;2023-03-01T12:15:03;9.00;;;2.88;;
72493;SDS011;60520;49.182;-0.348;2023-03-01T12:17:40;4.90;;;2.65;;
72493;SDS011;60520;49.182;-0.348;2023-03-01T12:20:18;6.85;;;2.80;;
72493;SDS011;60520;49.182;-0.348;2023-03-01T12:22:52;5.60;;;2.40;;
72493;SDS011;60520;49.182;-0.348;2023-03-01T12:25:25;4.05;;;2.30;;
72493;SDS011;60520;49.182;-0.348;2023-03-01T12:28:02;5.90;;;2.83;;
72493;SDS011;60520;49.182;-0.348;2023-03-01T12:30:35;6.10;;;2.90;;
72493;SDS011;60520;49.182;-0.348;2023-03-01T12:33:11;7.38;;;2.90;;
72493;SDS011;60520;49.182;-0.348;2023-03-01T12:35:44;6.55;;;2.70;;
72493;SDS011;60520;49.182;-0.348;2023-03-01T12:38:19;5.18;;;2.88;;
72493;SDS011;60520;49.182;-0.348;2023-03-01T12:41:00;6.10;;;2.60;;
72493;SDS011;60520;49.182;-0.348;2023-03-01T12:43:33;5.53;;;2.45;;
72493;SDS011;60520;49.182;-0.348;2023-03-01T12:46:06;4.90;;;2.33;;
72493;SDS011;60520;49.182;-0.348;2023-03-01T12:48:42;8.60;;;2.50;;
72493;SDS011;60520;49.182;-0.348;2023-03-01T12:51:13;6.03;;;2.30;;
72493;SDS011;60520;49.182;-0.348;2023-03-01T12:53:42;4.88;;;2.13;;
72493;SDS011;60520;49.182;-0.348;2023-03-01T12:56:11;4.50;;;2.38;;
72493;SDS011;60520;49.182;-0.348;2023-03-01T12:58:39;5.82;;;2.30;;
72493;SDS011;60520;49.182;-0.348;2023-03-01T13:01:13;6.68;;;2.17;;
72493;SDS011;60520;49.182;-0.348;2023-03-01T13:03:51;4.38;;;2.03;;
72493;SDS011;60520;49.182;-0.348;2023-03-01T13:06:24;3.55;;;2.00;;
72493;SDS011;60520;49.182;-0.348;2023-03-01T13:08:54;7.15;;;2.33;;
72493;SDS011;60520;49.182;-0.348;2023-03-01T13:11:23;3.47;;;2.10;;
72493;SDS011;60520;49.182;-0.348;2023-03-01T13:13:50;10.80;;;2.20;;
72493;SDS011;60520;49.182;-0.348;2023-03-01T13:16:20;5.75;;;2.78;;
72493;SDS011;60520;49.182;-0.348;2023-03-01T13:18:52;6.65;;;3.45;;
72493;SDS011;60520;49.182;-0.348;2023-03-01T13:21:32;7.85;;;3.28;;
72493;SDS011;60520;49.182;-0.348;2023-03-01T13:23:59;7.85;;;3.08;;
72493;SDS011;60520;49.182;-0.348;2023-03-01T13:26:26;8.80;;;3.80;;
72493;SDS011;60520;49.182;-0.348;2023-03-01T13:28:54;9.48;;;3.58;;
72493;SDS011;60520;49.182;-0.348;2023-03-01T13:37:09;13.50;;;3.63;;
72493;SDS011;60520;49.182;-0.348;2023-03-01T13:39:38;7.45;;;3.47;;
72493;SDS011;60520;49.182;-0.348;2023-03-01T13:44:48;9.45;;;3.20;;
72493;SDS011;60520;49.182;-0.348;2023-03-01T13:47:16;8.23;;;3.17;;
72493;SDS011;60520;49.182;-0.348;2023-03-01T13:49:46;10.13;;;4.05;;
72493;SDS011;60520;49.182;-0.348;2023-03-01T13:52:35;12.75;;;3.60;;
72493;SDS011;60520;49.182;-0.348;2023-03-01T13:55:05;6.90;;;3.30;;
72493;SDS011;60520;49.182;-0.348;2023-03-01T13:57:34;6.45;;;3.03;;
72493;SDS011;60520;49.182;-0.348;2023-03-01T14:00:04;9.63;;;3.00;;
72493;SDS011;60520;49.182;-0.348;2023-03-01T14:02:32;10.00;;;3.05;;
72493;SDS011;60520;49.182;-0.348;2023-03-01T14:05:01;8.80;;;2.80;;
72493;SDS011;60520;49.182;-0.348;2023-03-01T14:07:29;11.02;;;2.90;;
72493;SDS011;60520;49.182;-0.348;2023-03-01T14:09:57;4.68;;;2.58;;
72493;SDS011;60520;49.182;-0.348;2023-03-01T14:12:26;5.70;;;2.40;;
72493;SDS011;60520;49.182;-0.348;2023-03-01T14:14:59;9.10;;;2.72;;
72493;SDS011;60520;49.182;-0.348;2023-03-01T14:20:11;5.47;;;2.50;;
72493;SDS011;60520;49.182;-0.348;2023-03-01T14:22:41;10.07;;;2.40;;
72493;SDS011;60520;49.182;-0.348;2023-03-01T14:25:17;12.85;;;2.58;;
72493;SDS011;60520;49.182;-0.348;2023-03-01T14:27:44;10.15;;;2.78;;
72493;SDS011;60520;49.182;-0.348;2023-03-01T14:30:13;9.43;;;2.50;;
72493;SDS011;60520;49.182;-0.348;2023-03-01T14:32:41;5.47;;;2.30;;
72493;SDS011;60520;49.182;-0.348;2023-03-01T14:35:18;6.20;;;2.20;;
72493;SDS011;60520;49.182;-0.348;2023-03-01T14:37:47;8.20;;;2.40;;
72493;SDS011;60520;49.182;-0.348;2023-03-01T14:40:20;7.10;;;2.80;;
72493;SDS011;60520;49.182;-0.348;2023-03-01T14:42:47;7.05;;;2.30;;
72493;SDS011;60520;49.182;-0.348;2023-03-01T14:45:14;9.15;;;2.20;;
72493;SDS011;60520;49.182;-0.348;2023-03-01T14:47:43;5.18;;;2.20;;
72493;SDS011;60520;49.182;-0.348;2023-03-01T14:50:20;9.98;;;2.53;;
72493;SDS011;60520;49.182;-0.348;2023-03-01T14:52:48;7.07;;;2.00;;
72493;SDS011;60520;49.182;-0.348;2023-03-01T14:55:18;7.88;;;2.38;;
72493;SDS011;60520;49.182;-0.348;2023-03-01T14:57:47;5.10;;;1.88;;
72493;SDS011;60520;49.182;-0.348;2023-03-01T15:00:16;7.88;;;2.13;;